createdAt,value
2022-08-07T00:01:44.704Z,43.56
2022-08-07T00:03:55.196Z,43.57
2022-08-07T00:06:32.963Z,43.59
2022-08-07T00:09:16.124Z,43.87
2022-08-07T00:11:53.838Z,44.43
2022-08-07T00:14:25.559Z,43.71
2022-08-07T00:16:59.212Z,43.66
2022-08-07T00:19:34.061Z,43.77
2022-08-07T00:22:24.621Z,43.83
2022-08-07T00:25:02.813Z,43.78
2022-08-07T00:27:51.927Z,43.83
2022-08-07T00:30:26.390Z,43.72
2022-08-07T00:32:56.896Z,43.83
2022-08-07T00:35:24.998Z,43.99
2022-08-07T00:37:52.537Z,43.99
2022-08-07T00:40:39.077Z,44.35
2022-08-07T00:43:09.796Z,45.04
2022-08-07T00:45:38.480Z,44.77
2022-08-07T00:48:10.860Z,44.96
2022-08-07T00:50:43.769Z,45.22
2022-08-07T00:53:15.866Z,45.23
2022-08-07T00:56:02.052Z,45.24
2022-08-07T00:58:31.539Z,45.40
2022-08-07T01:00:59.389Z,45.34
2022-08-07T01:03:56.180Z,45.32
2022-08-07T01:06:19.286Z,45.33
2022-08-07T01:08:53.497Z,45.23
2022-08-07T01:12:09.829Z,45.64
2022-08-07T01:14:11.193Z,46.14
2022-08-07T01:16:38.895Z,46.31
2022-08-07T01:19:18.768Z,46.33
2022-08-07T01:21:53.418Z,46.45
2022-08-07T01:24:25.635Z,46.75
2022-08-07T01:26:53.928Z,46.72
2022-08-07T01:29:23.691Z,46.90
2022-08-07T01:31:59.362Z,46.78
2022-08-07T01:34:31.683Z,46.70
2022-08-07T01:37:04.834Z,46.53
2022-08-07T01:39:40.375Z,46.37
2022-08-07T01:42:39.015Z,46.31
2022-08-07T01:45:18.387Z,46.28
2022-08-07T01:48:20.503Z,46.17
2022-08-07T01:50:44.032Z,46.14
2022-08-07T01:53:20.913Z,46.16
2022-08-07T01:55:55.836Z,46.06
2022-08-07T01:58:27.283Z,45.99
2022-08-07T02:01:09.328Z,45.99
2022-08-07T02:03:48.712Z,45.89
2022-08-07T02:06:30.841Z,46.15
2022-08-07T02:09:04.611Z,46.07
2022-08-07T02:12:03.590Z,46.04
2022-08-07T02:14:36.263Z,46.13
2022-08-07T02:17:10.018Z,46.00
2022-08-07T02:20:07.583Z,45.95
2022-08-07T02:22:26.244Z,46.08
2022-08-07T02:24:57.428Z,46.21
2022-08-07T02:27:34.198Z,46.23
2022-08-07T02:30:04.036Z,46.19
2022-08-07T02:32:39.693Z,46.17
2022-08-07T02:36:28.755Z,46.21
2022-08-07T02:38:14.405Z,46.28
2022-08-07T02:40:46.681Z,46.30
2022-08-07T02:43:15.848Z,46.17
2022-08-07T02:46:01.465Z,46.30
2022-08-07T02:48:32.756Z,46.25
2022-08-07T02:51:07.512Z,46.29
2022-08-07T02:53:55.822Z,46.26
2022-08-07T02:56:25.417Z,46.32
2022-08-07T02:58:56.135Z,46.33
2022-08-07T03:01:35.592Z,46.25
2022-08-07T03:04:12.534Z,46.28
2022-08-07T03:06:44.707Z,46.32
2022-08-07T03:09:14.659Z,46.25
2022-08-07T03:12:05.220Z,46.26
2022-08-07T03:14:36.241Z,46.28
2022-08-07T03:17:04.539Z,46.36
2022-08-07T03:19:37.274Z,46.29
2022-08-07T03:22:07.305Z,46.20
2022-08-07T03:24:47.053Z,46.26
2022-08-07T03:27:30.346Z,46.38
2022-08-07T03:29:59.813Z,46.35
2022-08-07T03:32:29.785Z,46.40
2022-08-07T03:35:01.068Z,46.30
2022-08-07T03:37:53.831Z,46.29
2022-08-07T03:40:31.221Z,46.32
2022-08-07T03:43:13.915Z,46.33
2022-08-07T03:45:47.670Z,46.38
2022-08-07T03:48:17.363Z,46.33
2022-08-07T03:50:55.796Z,46.40
2022-08-07T03:54:01.893Z,46.44
2022-08-07T03:56:17.532Z,46.50
2022-08-07T03:59:09.636Z,46.44
2022-08-07T04:01:41.255Z,46.52
2022-08-07T04:04:17.223Z,46.48
2022-08-07T04:06:50.697Z,46.58
2022-08-07T04:09:23.040Z,46.63
2022-08-07T04:12:27.691Z,46.61
2022-08-07T04:14:47.565Z,46.67
2022-08-07T04:17:21.536Z,46.74
2022-08-07T04:19:55.318Z,46.66
2022-08-07T04:22:31.310Z,46.71
2022-08-07T04:25:08.818Z,46.75
2022-08-07T04:27:44.376Z,46.81
2022-08-07T04:30:35.863Z,46.91
2022-08-07T04:33:17.707Z,46.86
2022-08-07T04:35:50.370Z,47.02
2022-08-07T04:38:22.055Z,47.12
2022-08-07T04:40:52.758Z,47.11
2022-08-07T04:44:11.711Z,47.16
2022-08-07T04:46:59.368Z,47.22
2022-08-07T04:49:29.341Z,47.23
2022-08-07T04:52:07.527Z,47.26
2022-08-07T04:54:36.843Z,47.38
2022-08-07T04:58:16.094Z,47.46
2022-08-07T05:00:10.654Z,47.66
2022-08-07T05:02:46.466Z,47.90
2022-08-07T05:05:53.497Z,48.04
2022-08-07T05:08:07.416Z,48.09
2022-08-07T05:10:38.609Z,48.27
2022-08-07T05:13:10.007Z,48.33
2022-08-07T05:15:55.944Z,48.44
2022-08-07T05:18:32.078Z,48.52
2022-08-07T05:21:01.771Z,48.60
2022-08-07T05:23:35.631Z,48.63
2022-08-07T05:26:13.148Z,48.61
2022-08-07T05:28:48.614Z,48.50
2022-08-07T05:31:19.704Z,48.44
2022-08-07T05:34:01.252Z,48.47
2022-08-07T05:36:35.725Z,48.52
2022-08-07T05:39:09.236Z,48.49
2022-08-07T05:42:02.238Z,48.63
2022-08-07T05:44:32.207Z,48.68
2022-08-07T05:47:01.569Z,48.52
2022-08-07T05:49:49.722Z,48.33
2022-08-07T05:52:20.103Z,48.33
2022-08-07T05:54:55.306Z,48.25
2022-08-07T05:57:26.571Z,48.06
2022-08-07T05:59:59.219Z,47.98
2022-08-07T06:02:40.191Z,47.74
2022-08-07T06:05:15.706Z,46.84
2022-08-07T06:08:14.237Z,47.45
2022-08-07T06:10:33.975Z,47.04
2022-08-07T06:13:02.214Z,46.70
2022-08-07T06:15:40.425Z,46.69
2022-08-07T06:18:13.800Z,46.46
2022-08-07T06:20:50.011Z,46.16
2022-08-07T06:24:36.815Z,45.90
2022-08-07T06:26:19.373Z,45.55
2022-08-07T06:28:52.757Z,45.45
2022-08-07T06:31:21.099Z,45.37
2022-08-07T06:33:52.491Z,45.27
2022-08-07T06:36:34.824Z,45.08
2022-08-07T06:40:13.206Z,44.83
2022-08-07T06:42:01.618Z,44.74
2022-08-07T06:44:57.101Z,44.84
2022-08-07T06:47:27.019Z,44.64
2022-08-07T06:49:58.679Z,44.57
2022-08-07T06:52:35.630Z,44.48
2022-08-07T06:55:31.345Z,44.58
2022-08-07T06:57:57.078Z,44.28
2022-08-07T07:00:29.496Z,43.97
2022-08-07T07:03:00.750Z,44.07
2022-08-07T07:06:04.074Z,44.04
2022-08-07T07:08:25.600Z,44.16
2022-08-07T07:10:57.238Z,44.09
2022-08-07T07:13:57.852Z,44.04
2022-08-07T07:16:19.571Z,43.95
2022-08-07T07:18:48.821Z,43.73
2022-08-07T07:21:19.641Z,43.85
2022-08-07T07:24:09.211Z,43.80
2022-08-07T07:26:37.947Z,43.18
2022-08-07T07:29:56.280Z,43.51
2022-08-07T07:31:55.496Z,43.47
2022-08-07T07:34:30.568Z,43.41
2022-08-07T07:37:14.326Z,43.10
2022-08-07T07:39:52.349Z,42.93
2022-08-07T07:42:32.408Z,42.96
2022-08-07T07:45:01.256Z,42.56
2022-08-07T07:47:28.800Z,42.58
2022-08-07T07:50:33.641Z,42.51
2022-08-07T07:52:44.569Z,42.28
2022-08-07T07:55:16.179Z,42.35
2022-08-07T07:57:51.863Z,42.61
2022-08-07T08:00:29.493Z,42.72
2022-08-07T08:03:05.751Z,42.82
2022-08-07T08:05:50.821Z,43.14
2022-08-07T08:08:34.814Z,43.35
2022-08-07T08:11:05.687Z,43.26
2022-08-07T08:13:50.780Z,43.49
2022-08-07T08:16:25.041Z,43.61
2022-08-07T08:18:52.907Z,43.69
2022-08-07T08:21:55.950Z,43.27
2022-08-07T08:24:45.569Z,43.47
2022-08-07T08:27:16.575Z,43.79
2022-08-07T08:29:54.458Z,43.94
2022-08-07T08:32:25.610Z,44.07
2022-08-07T08:35:06.637Z,44.20
2022-08-07T08:38:00.760Z,44.07
2022-08-07T08:40:28.610Z,44.03
2022-08-07T08:42:58.594Z,44.14
2022-08-07T08:45:42.052Z,44.17
2022-08-07T08:48:17.108Z,44.17
2022-08-07T08:50:46.087Z,44.18
2022-08-07T08:53:16.541Z,44.27
2022-08-07T08:55:55.398Z,44.45
2022-08-07T08:58:30.994Z,44.46
2022-08-07T09:01:00.952Z,44.28
2022-08-07T09:03:47.771Z,44.34
2022-08-07T09:06:19.399Z,44.62
2022-08-07T09:08:49.063Z,44.64
2022-08-07T09:11:34.960Z,44.72
2022-08-07T09:14:14.510Z,44.65
2022-08-07T09:16:51.606Z,44.88
2022-08-07T09:19:53.180Z,44.93
2022-08-07T09:22:36.765Z,45.05
2022-08-07T09:25:06.992Z,45.08
2022-08-07T09:27:59.628Z,45.13
2022-08-07T09:30:31.163Z,45.33
2022-08-07T09:33:05.287Z,45.03
2022-08-07T09:36:03.472Z,45.07
2022-08-07T09:38:38.475Z,45.21
2022-08-07T09:41:11.103Z,45.43
2022-08-07T09:44:05.631Z,45.24
2022-08-07T09:47:49.844Z,45.28
2022-08-07T09:50:00.801Z,45.32
2022-08-07T09:52:34.217Z,45.25
2022-08-07T09:55:06.517Z,45.32
2022-08-07T09:58:09.532Z,45.07
2022-08-07T10:00:46.018Z,45.15
2022-08-07T10:04:05.602Z,45.09
2022-08-07T10:06:38.867Z,45.30
2022-08-07T10:09:11.389Z,45.37
2022-08-07T10:12:01.754Z,44.99
2022-08-07T10:14:41.642Z,45.03
2022-08-07T10:17:16.612Z,44.97
2022-08-07T10:19:48.173Z,44.93
2022-08-07T10:22:33.894Z,45.29
2022-08-07T10:25:08.406Z,45.42
2022-08-07T10:27:46.807Z,45.35
2022-08-07T10:30:16.257Z,45.52
2022-08-07T10:33:00.057Z,45.34
2022-08-07T10:35:55.673Z,45.41
2022-08-07T10:38:47.865Z,45.24
2022-08-07T10:41:10.563Z,45.69
2022-08-07T10:43:43.144Z,45.49
2022-08-07T10:46:14.548Z,45.77
2022-08-07T10:48:44.270Z,45.69
2022-08-07T10:51:16.924Z,45.64
2022-08-07T10:54:08.175Z,45.52
2022-08-07T10:56:44.855Z,45.56
2022-08-07T10:59:15.570Z,45.74
2022-08-07T11:01:51.053Z,45.75
2022-08-07T11:04:37.819Z,45.64
2022-08-07T11:07:14.971Z,45.85
2022-08-07T11:10:09.209Z,45.93
2022-08-07T11:12:43.414Z,45.86
2022-08-07T11:15:17.371Z,45.88
2022-08-07T11:17:47.730Z,45.87
2022-08-07T11:20:17.631Z,45.90
2022-08-07T11:22:48.089Z,45.24
2022-08-07T11:25:17.440Z,45.25
2022-08-07T11:28:02.756Z,45.27
2022-08-07T11:30:41.333Z,45.30
2022-08-07T11:33:14.299Z,45.16
2022-08-07T11:35:59.746Z,45.19
2022-08-07T11:38:31.671Z,45.23
2022-08-07T11:41:02.170Z,45.22
2022-08-07T11:43:54.417Z,45.04
2022-08-07T11:46:40.574Z,45.11
2022-08-07T11:49:50.367Z,45.02
2022-08-07T11:52:12.168Z,44.79
2022-08-07T11:54:55.070Z,44.95
2022-08-07T11:57:52.397Z,45.01
2022-08-07T12:00:19.035Z,44.96
2022-08-07T12:02:52.590Z,45.06
2022-08-07T12:05:28.760Z,45.26
2022-08-07T12:08:11.381Z,45.27
2022-08-07T12:11:08.162Z,45.21
2022-08-07T12:13:47.561Z,45.23
2022-08-07T12:16:28.870Z,45.34
2022-08-07T12:18:59.739Z,45.36
2022-08-07T12:22:35.741Z,45.11
2022-08-07T12:24:38.418Z,45.18
2022-08-07T12:27:13.237Z,45.30
2022-08-07T12:29:43.848Z,45.18
2022-08-07T12:32:16.972Z,45.49
2022-08-07T12:34:49.417Z,45.32
2022-08-07T12:37:23.284Z,45.30
2022-08-07T12:39:57.520Z,45.45
2022-08-07T12:42:27.589Z,45.39
2022-08-07T12:44:55.954Z,45.35
2022-08-07T12:47:30.400Z,45.29
2022-08-07T12:50:05.063Z,45.27
2022-08-07T12:52:52.340Z,45.24
2022-08-07T12:55:22.496Z,45.19
2022-08-07T12:58:08.915Z,45.20
2022-08-07T13:00:49.458Z,45.14
2022-08-07T13:04:02.030Z,45.21
2022-08-07T13:06:26.999Z,45.26
2022-08-07T13:08:57.251Z,44.95
2022-08-07T13:11:31.470Z,45.14
2022-08-07T13:14:20.330Z,45.07
2022-08-07T13:16:53.924Z,44.88
2022-08-07T13:19:46.279Z,45.26
2022-08-07T13:22:26.827Z,45.00
2022-08-07T13:24:57.678Z,45.14
2022-08-07T13:27:33.443Z,45.21
2022-08-07T13:30:19.285Z,45.09
2022-08-07T13:33:05.586Z,45.08
2022-08-07T13:36:00.334Z,45.02
2022-08-07T13:38:30.648Z,45.22
2022-08-07T13:41:03.364Z,45.04
2022-08-07T13:43:34.244Z,44.99
2022-08-07T13:46:12.858Z,45.19
2022-08-07T13:48:58.719Z,45.10
2022-08-07T13:52:22.334Z,44.96
2022-08-07T13:54:23.790Z,45.09
2022-08-07T13:56:55.966Z,45.15
2022-08-07T13:59:27.771Z,44.94
2022-08-07T14:02:04.456Z,45.13
2022-08-07T14:04:35.778Z,44.95
2022-08-07T14:07:05.216Z,45.06
2022-08-07T14:10:12.513Z,44.96
2022-08-07T14:12:28.199Z,45.08
2022-08-07T14:14:57.041Z,44.95
2022-08-07T14:18:13.632Z,44.99
2022-08-07T14:20:41.127Z,45.09
2022-08-07T14:23:07.419Z,44.97
2022-08-07T14:25:39.368Z,45.10
2022-08-07T14:28:13.876Z,45.13
2022-08-07T14:30:41.472Z,45.11
2022-08-07T14:33:09.087Z,44.95
2022-08-07T14:35:45.413Z,45.03
2022-08-07T14:38:26.095Z,44.89
2022-08-07T14:41:00.777Z,44.98
2022-08-07T14:43:58.664Z,44.85
2022-08-07T14:46:22.628Z,44.97
2022-08-07T14:48:58.356Z,45.06
2022-08-07T14:52:04.656Z,44.91
2022-08-07T14:54:33.047Z,44.90
2022-08-07T14:57:04.563Z,44.70
2022-08-07T15:00:03.759Z,44.66
2022-08-07T15:02:33.176Z,44.96
2022-08-07T15:05:02.521Z,44.72
2022-08-07T15:07:47.670Z,44.70
2022-08-07T15:10:25.029Z,44.89
2022-08-07T15:12:58.211Z,44.59
2022-08-07T15:15:27.005Z,44.83
2022-08-07T15:17:55.889Z,44.59
2022-08-07T15:20:32.692Z,44.57
2022-08-07T15:23:17.064Z,44.60
2022-08-07T15:25:51.603Z,44.59
2022-08-07T15:28:34.763Z,44.58
2022-08-07T15:31:07.755Z,44.34
2022-08-07T15:33:36.259Z,44.28
2022-08-07T15:38:59.644Z,44.08
2022-08-07T15:42:44.932Z,44.16
2022-08-07T15:44:18.551Z,44.05
2022-08-07T15:46:52.771Z,44.15
2022-08-07T15:52:10.619Z,43.83
2022-08-07T15:54:41.757Z,43.94
2022-08-07T15:57:28.339Z,44.25
2022-08-07T16:00:04.318Z,44.04
2022-08-07T16:02:46.726Z,44.28
2022-08-07T16:05:15.410Z,43.95
2022-08-07T16:08:31.925Z,43.88
2022-08-07T16:10:31.138Z,43.96
2022-08-07T16:13:05.745Z,43.95
2022-08-07T16:15:57.304Z,44.17
2022-08-07T16:18:49.603Z,44.14
2022-08-07T16:22:01.854Z,44.04
2022-08-07T16:24:33.955Z,44.23
2022-08-07T16:27:18.039Z,44.06
2022-08-07T16:30:10.206Z,44.00
2022-08-07T16:32:54.403Z,44.22
2022-08-07T16:35:59.082Z,44.05
2022-08-07T16:39:00.151Z,44.10
2022-08-07T16:41:20.879Z,44.32
2022-08-07T16:44:40.438Z,44.31
2022-08-07T16:47:17.222Z,44.36
2022-08-07T16:50:35.590Z,44.21
2022-08-07T16:54:02.037Z,44.23
2022-08-07T16:56:01.282Z,44.36
2022-08-07T16:58:54.414Z,44.28
2022-08-07T17:01:24.435Z,44.11
2022-08-07T17:03:58.625Z,44.25
2022-08-07T17:06:42.625Z,44.32
2022-08-07T17:09:14.187Z,44.35
2022-08-07T17:12:33.467Z,44.50
2022-08-07T17:14:51.513Z,44.33
2022-08-07T17:17:44.536Z,44.31
2022-08-07T17:20:20.964Z,44.29
2022-08-07T17:22:55.643Z,44.33
2022-08-07T17:25:48.034Z,44.32
2022-08-07T17:28:14.108Z,44.42
2022-08-07T17:30:57.472Z,44.47
2022-08-07T17:33:39.003Z,44.69
2022-08-07T17:36:20.341Z,44.52
2022-08-07T17:38:55.391Z,44.51
2022-08-07T17:42:01.961Z,44.55
2022-08-07T17:44:34.074Z,44.39
2022-08-07T17:47:03.987Z,44.45
2022-08-07T17:49:44.736Z,44.73
2022-08-07T17:52:14.647Z,44.70
2022-08-07T17:54:54.312Z,44.58
2022-08-07T17:57:25.267Z,44.62
2022-08-07T18:00:15.295Z,44.63
2022-08-07T18:03:01.556Z,44.49
2022-08-07T18:06:02.125Z,44.70
2022-08-07T18:08:26.497Z,44.52
2022-08-07T18:12:06.718Z,44.50
2022-08-07T18:13:49.643Z,44.63
2022-08-07T18:16:33.295Z,44.52
2022-08-07T18:21:03.433Z,44.45
2022-08-07T18:22:03.505Z,44.69
2022-08-07T18:24:35.992Z,44.73
2022-08-07T18:27:21.029Z,44.61
2022-08-07T18:30:06.641Z,44.84
2022-08-07T18:33:10.923Z,44.70
2022-08-07T18:35:51.968Z,44.63
2022-08-07T18:38:58.484Z,44.52
2022-08-07T18:41:17.249Z,44.69
2022-08-07T18:43:57.749Z,44.60
2022-08-07T18:46:30.391Z,44.71
2022-08-07T18:50:19.605Z,44.68
2022-08-07T18:52:33.856Z,44.72
2022-08-07T18:54:39.976Z,44.75
2022-08-07T18:57:30.499Z,44.59
2022-08-07T19:00:04.487Z,44.95
2022-08-07T19:02:52.674Z,44.81
2022-08-07T19:05:24.707Z,44.83
2022-08-07T19:07:58.672Z,44.92
2022-08-07T19:10:31.796Z,44.61
2022-08-07T19:13:21.679Z,44.65
2022-08-07T19:16:05.731Z,44.99
2022-08-07T19:18:46.368Z,44.85
2022-08-07T19:21:43.964Z,44.92
2022-08-07T19:24:06.220Z,44.76
2022-08-07T19:27:16.901Z,44.90
2022-08-07T19:31:03.861Z,44.89
2022-08-07T19:32:18.703Z,44.98
2022-08-07T19:35:00.570Z,45.00
2022-08-07T19:37:55.287Z,45.06
2022-08-07T19:40:15.653Z,44.88
2022-08-07T19:42:44.281Z,45.02
2022-08-07T19:45:13.696Z,44.98
2022-08-07T19:48:01.231Z,44.88
2022-08-07T19:50:41.364Z,45.08
2022-08-07T19:54:34.190Z,44.86
2022-08-07T19:56:00.896Z,45.14
2022-08-07T19:58:29.367Z,45.09
2022-08-07T20:00:57.165Z,45.11
2022-08-07T20:03:35.209Z,44.92
2022-08-07T20:06:05.364Z,45.16
2022-08-07T20:08:33.881Z,45.11
2022-08-07T20:11:03.911Z,45.27
2022-08-07T20:13:41.943Z,45.09
2022-08-07T20:16:09.888Z,45.00
2022-08-07T20:18:57.602Z,45.11
2022-08-07T20:21:29.235Z,45.26
2022-08-07T20:24:17.779Z,45.04
2022-08-07T20:26:50.120Z,45.13
2022-08-07T20:29:48.093Z,45.19
2022-08-07T20:32:11.558Z,45.22
2022-08-07T20:34:51.925Z,45.26
2022-08-07T20:37:24.329Z,45.16
2022-08-07T20:40:02.042Z,45.11
2022-08-07T20:42:31.109Z,45.20
2022-08-07T20:45:01.047Z,45.32
2022-08-07T20:47:56.042Z,45.19
2022-08-07T20:50:16.555Z,45.33
2022-08-07T20:52:51.458Z,45.09
2022-08-07T20:55:23.562Z,45.30
2022-08-07T20:58:02.320Z,45.07
2022-08-07T21:00:32.236Z,45.22
2022-08-07T21:03:00.936Z,45.08
2022-08-07T21:05:52.915Z,45.43
2022-08-07T21:08:32.328Z,45.28
2022-08-07T21:11:07.557Z,45.08
2022-08-07T21:13:43.737Z,45.24
2022-08-07T21:16:26.557Z,45.38
2022-08-07T21:18:56.722Z,45.19
2022-08-07T21:21:27.003Z,45.19
2022-08-07T21:23:58.595Z,45.11
2022-08-07T21:26:30.672Z,45.33
2022-08-07T21:28:58.937Z,45.20
2022-08-07T21:31:49.351Z,45.14
2022-08-07T21:34:18.290Z,45.41
2022-08-07T21:36:49.939Z,45.11
2022-08-07T21:39:46.809Z,45.29
2022-08-07T21:42:37.553Z,45.04
2022-08-07T21:46:05.423Z,45.03
2022-08-07T21:47:54.048Z,45.29
2022-08-07T21:50:23.366Z,44.96
2022-08-07T21:52:54.371Z,45.34
2022-08-07T21:55:29.916Z,45.31
2022-08-07T21:58:06.271Z,45.30
2022-08-07T22:00:33.771Z,45.40
2022-08-07T22:03:05.777Z,45.44
2022-08-07T22:05:45.530Z,45.42
2022-08-07T22:08:18.521Z,45.03
2022-08-07T22:10:49.621Z,44.12
2022-08-07T22:13:24.625Z,100.00
2022-08-07T22:16:42.992Z,100.00
2022-08-07T22:18:56.569Z,100.00
2022-08-07T22:22:04.546Z,100.00
2022-08-07T22:24:15.977Z,100.00
2022-08-07T22:26:46.068Z,100.00
2022-08-07T22:29:16.112Z,100.00
2022-08-07T22:31:59.440Z,100.00
2022-08-07T22:34:35.737Z,100.00
2022-08-07T22:37:09.178Z,100.00
2022-08-07T22:39:52.594Z,100.00
2022-08-07T22:42:26.006Z,100.00
2022-08-07T22:44:59.074Z,100.00
2022-08-07T22:47:33.837Z,100.00
2022-08-07T22:50:08.441Z,100.00
2022-08-07T22:53:15.211Z,100.00
2022-08-07T22:55:44.666Z,100.00
2022-08-07T22:58:21.495Z,100.00
2022-08-07T23:00:55.938Z,100.00
2022-08-07T23:03:28.474Z,100.00
2022-08-07T23:06:14.667Z,100.00
2022-08-07T23:08:54.547Z,100.00
2022-08-07T23:11:28.623Z,100.00
2022-08-07T23:14:16.568Z,100.00
2022-08-07T23:16:55.581Z,100.00
2022-08-07T23:19:51.281Z,100.00
2022-08-07T23:22:27.792Z,100.00
2022-08-07T23:24:58.942Z,100.00
2022-08-07T23:27:33.705Z,100.00
2022-08-07T23:30:38.008Z,100.00
2022-08-07T23:34:33.304Z,100.00
2022-08-07T23:36:08.500Z,100.00
2022-08-07T23:38:54.860Z,100.00
2022-08-07T23:41:33.017Z,100.00
2022-08-07T23:44:13.812Z,100.00
2022-08-07T23:46:49.791Z,100.00
2022-08-07T23:49:42.177Z,100.00
2022-08-07T23:53:01.972Z,100.00
2022-08-07T23:55:09.596Z,100.00
2022-08-07T23:57:37.615Z,100.00
